Tar Heel, North Carolina
Current Conditions -  °F | °C
As of 6:15 PM on Friday 19 Dec 2014 (Local Time) from KEYF Reporting Station
Clear Clear  
Wind Chill:   Ceiling: Unl
Heat Index:   Visibility: 10mi
Dew Point:   Wind: 0mph
Humidity: 53%   Direction: NA
Pressure: 30.15"   Gusts: NA
Location:  34.73°N, 78.79°W
Report Text: KEYF 192315Z AUTO 00000KT 10SM CLR 09/00 A3015 RMK AO2 T00920000
Loading
Personal Weather Stations






























Interactive Weather Map New forecast layout! Learn more

10-Day Weather Forecast

Advertisements
Track Severe Weather on mobile